Impacts METAR Board
IDs:

KMIA - Miami Intl, FL, US

Updated at: 0000 UTC 27 Apr 2018
Potential Impact None Slight Moderate High
Time 26/12Z 26/13Z 26/14Z 26/15Z 26/16Z 26/17Z 26/18Z 26/19Z 26/20Z 26/21Z 26/22Z 26/23Z 27/00Z
Temp68 72 75 76 79 80 80 82 83 83 81 79 78
Dewpt61 61 62 62 63 62 64 66 66 67 68 68 69
Altim29.95 29.96 29.97 29.98 29.98 29.97 29.95 29.93 29.91 29.89 29.88 29.90 29.92
VIS10 10 10 10 10 10 10 10 10 10 10 10 10
CIG-- -- -- -- -- 35 35 45 -- 250 250 250 250
CoverFEWFEWFEWFEWFEWBKNBKNBKNSCTBKNBKNBKNBKN
FltCatVFRVFRVFRVFRVFRVFRVFRVFRVFRVFRVFRVFRVFR
WX--------------------------
WDir3300320002600150200180140140150
WSpd6 4 5 4 3 7 5 7 8 6 9 9 9
WGst-- -- -- -- -- -- -- -- -- -- -- 16 --
Raw hourly METARs
KMIA 261153Z 33006KT 10SM FEW025 20/16 A2995 RMK AO2 SLP143 T02000161 10200 20189 53008
KMIA 261253Z VRB04KT 10SM FEW250 22/16 A2996 RMK AO2 SLP145 T02220161
KMIA 261353Z 32005KT 10SM FEW250 24/17 A2997 RMK AO2 SLP148 T02390167
KMIA 261453Z VRB04KT 10SM FEW030 FEW250 24/17 A2998 RMK AO2 SLP152 T02440167 53009
KMIA 261553Z VRB03KT 10SM FEW034 FEW250 26/17 A2998 RMK AO2 SLP154 T02610172
KMIA 261653Z 26007KT 230V300 10SM BKN035 27/17 A2997 RMK AO2 SLP148 T02670167
KMIA 261753Z VRB05KT 10SM BKN035 27/18 A2995 RMK AO2 SLP143 T02670178 10272 20200 58009
KMIA 261853Z 15007KT 120V190 10SM FEW025 BKN045 28/19 A2993 RMK AO2 SLP137 T02780189
KMIA 261953Z 20008KT 170V250 10SM FEW040 SCT050 SCT250 28/19 A2991 RMK AO2 SLP127 T02830189
KMIA 262053Z 18006KT 10SM FEW040 BKN250 28/19 A2989 RMK AO2 SLP120 T02830194 56023
KMIA 262153Z 14009KT 10SM FEW045 BKN250 27/20 A2988 RMK AO2 SLP120 T02720200
KMIA 262253Z 14009G16KT 10SM SCT050 BKN250 26/20 A2990 RMK AO2 SLP126 T02610200
KMIA 262353Z 15009KT 10SM SCT045 BKN250 26/21 A2992 RMK AO2 SLP132 T02560206 10283 20256 53012



Page loaded:  00:43 UTC  |   05:43 PM Pacific  |   06:43 PM Mountain  |   07:43 PM Central  |   08:43 PM Eastern

 

ADVISORIES

FORECASTS

FORECASTS

OBSERVATIONS

USER TOOLS

ABOUT US